Time;durP1;ratioP1;P1;durP2;ratioP2;P2;SDS_P1;SDS_P2;PMS_P1;PMS_P2;Temp;Humidity;BMP_temperature;BMP_pressure;BME280_temperature;BME280_humidity;BME280_pressure;Samples;Min_cycle;Max_cycle;Signal;HPM_P1;HPM_P2
2023/05/29 00:01:21;;;;;;;;;;;23.10;42.00;;;;;;1556792;76;721;-60
2023/05/29 00:03:22;;;;;;;;;;;23.10;42.10;;;;;;1549139;74;735;-60
2023/05/29 00:05:25;;;;;;;;;;;23.00;41.80;;;;;;1570174;74;1431;-60
2023/05/29 00:07:27;;;;;;;;;;;23.10;41.90;;;;;;1558379;76;1137;-60
2023/05/29 00:09:29;;;;;;;;;;;23.10;41.90;;;;;;1556091;75;1916;-60
2023/05/29 00:11:33;;;;;;;;;;;23.00;41.80;;;;;;1545221;75;729;-61
2023/05/29 00:13:35;;;;;;;;;;;23.10;41.90;;;;;;1521865;77;679;-61
2023/05/29 00:15:37;;;;;;;;;;;23.10;41.90;;;;;;1524465;76;808;-61
2023/05/29 00:17:40;;;;;;;;;;;23.10;41.80;;;;;;1559045;76;1483;-61
2023/05/29 00:19:43;;;;;;;;;;;23.10;41.80;;;;;;1558758;74;721;-61
2023/05/29 00:21:47;;;;;;;;;;;23.10;41.90;;;;;;1561725;75;695;-60
2023/05/29 00:23:48;;;;;;;;;;;23.10;41.90;;;;;;1564483;75;1593;-61
2023/05/29 00:25:50;;;;;;;;;;;23.10;41.90;;;;;;1553168;76;687;-61
2023/05/29 00:27:52;;;;;;;;;;;23.10;41.90;;;;;;1550807;76;1166;-61
2023/05/29 00:29:54;;;;;;;;;;;23.10;41.80;;;;;;1549905;76;1957;-63
2023/05/29 00:31:56;;;;;;;;;;;23.10;41.80;;;;;;1545391;76;1454;-63
2023/05/29 00:33:58;;;;;;;;;;;23.10;41.90;;;;;;1553440;76;786;-66
2023/05/29 00:36:00;;;;;;;;;;;23.10;41.90;;;;;;1563706;74;714;-62
2023/05/29 00:38:02;;;;;;;;;;;23.00;41.70;;;;;;1552520;76;1168;-61
2023/05/29 00:40:04;;;;;;;;;;;23.10;41.80;;;;;;1555059;76;728;-62
2023/05/29 00:42:06;;;;;;;;;;;23.10;41.80;;;;;;1555974;74;711;-62
2023/05/29 00:44:08;;;;;;;;;;;23.10;41.80;;;;;;1560909;74;726;-61
2023/05/29 00:46:10;;;;;;;;;;;23.00;41.60;;;;;;1556128;74;1240;-62
2023/05/29 00:48:12;;;;;;;;;;;23.10;41.80;;;;;;1557597;74;1213;-62
2023/05/29 00:50:14;;;;;;;;;;;23.00;41.60;;;;;;1560865;74;1934;-62
2023/05/29 00:52:16;;;;;;;;;;;23.10;41.70;;;;;;1551674;74;685;-62
2023/05/29 00:54:18;;;;;;;;;;;23.10;41.70;;;;;;1548623;74;714;-63
2023/05/29 00:56:20;;;;;;;;;;;23.10;41.70;;;;;;1555393;74;742;-63
2023/05/29 00:58:22;;;;;;;;;;;23.10;41.60;;;;;;1558323;74;1203;-63
2023/05/29 01:00:24;;;;;;;;;;;23.10;41.60;;;;;;1559592;74;1496;-62
2023/05/29 01:02:26;;;;;;;;;;;23.10;41.60;;;;;;1560449;76;751;-61
2023/05/29 01:04:28;;;;;;;;;;;23.10;41.60;;;;;;1559787;74;770;-61
2023/05/29 01:06:30;;;;;;;;;;;23.10;41.70;;;;;;1564848;74;787;-61
2023/05/29 01:08:32;;;;;;;;;;;23.10;41.70;;;;;;1562747;76;1101;-61
2023/05/29 01:10:34;;;;;;;;;;;23.10;41.60;;;;;;1553390;74;1927;-61
2023/05/29 01:12:50;;;;;;;;;;;23.10;41.60;;;;;;1549777;76;732;-61
2023/05/29 01:14:57;;;;;;;;;;;23.10;41.60;;;;;;1558879;76;1437;-60
2023/05/29 01:17:06;;;;;;;;;;;23.10;41.60;;;;;;1552705;76;1728;-60
2023/05/29 01:19:18;;;;;;;;;;;23.10;41.70;;;;;;1556323;76;1945;-62
2023/05/29 01:21:25;;;;;;;;;;;23.10;41.70;;;;;;1562980;74;853;-61
2023/05/29 01:23:31;;;;;;;;;;;23.10;41.80;;;;;;1550649;76;1166;-60
2023/05/29 01:25:49;;;;;;;;;;;23.10;41.80;;;;;;1558377;76;715;-60
2023/05/29 01:27:51;;;;;;;;;;;23.10;41.80;;;;;;1551336;76;1163;-60
2023/05/29 01:29:53;;;;;;;;;;;23.10;41.80;;;;;;1565300;76;1926;-60
2023/05/29 01:31:55;;;;;;;;;;;23.20;41.70;;;;;;1557518;76;585;-60
2023/05/29 01:33:58;;;;;;;;;;;23.20;41.70;;;;;;1559179;76;695;-60
2023/05/29 01:36:00;;;;;;;;;;;23.10;41.70;;;;;;1563440;74;712;-61
2023/05/29 01:38:02;;;;;;;;;;;23.10;41.70;;;;;;1544994;74;1115;-60
2023/05/29 01:40:04;;;;;;;;;;;23.10;41.70;;;;;;1554316;74;648;-61
2023/05/29 01:42:06;;;;;;;;;;;23.10;41.60;;;;;;1559102;76;1441;-60
2023/05/29 01:44:12;;;;;;;;;;;23.10;41.70;;;;;;1553829;76;694;-60
2023/05/29 01:46:14;;;;;;;;;;;23.10;41.60;;;;;;1563531;76;679;-59
2023/05/29 01:48:16;;;;;;;;;;;23.10;41.70;;;;;;1547225;74;1168;-60
2023/05/29 01:50:18;;;;;;;;;;;23.10;41.60;;;;;;1561726;74;1938;-60
2023/05/29 01:52:20;;;;;;;;;;;23.10;41.60;;;;;;1546293;74;871;-60
2023/05/29 01:54:22;;;;;;;;;;;23.10;41.60;;;;;;1548537;76;763;-60
2023/05/29 01:56:24;;;;;;;;;;;23.10;41.60;;;;;;1550779;75;1434;-60
2023/05/29 01:58:26;;;;;;;;;;;23.20;41.60;;;;;;1557524;74;1482;-60
2023/05/29 02:00:28;;;;;;;;;;;23.20;41.50;;;;;;1565571;76;719;-61
2023/05/29 02:02:29;;;;;;;;;;;23.10;41.50;;;;;;1553804;76;706;-60
2023/05/29 02:04:31;;;;;;;;;;;23.20;41.50;;;;;;1552770;74;680;-60
2023/05/29 02:06:33;;;;;;;;;;;23.20;41.50;;;;;;1546854;76;735;-61
2023/05/29 02:08:35;;;;;;;;;;;23.20;41.50;;;;;;1554278;74;1118;-60
2023/05/29 02:10:37;;;;;;;;;;;23.10;41.40;;;;;;1563777;74;1946;-60
2023/05/29 02:12:39;;;;;;;;;;;23.10;41.50;;;;;;1564576;75;694;-60
2023/05/29 02:14:41;;;;;;;;;;;23.10;41.50;;;;;;1569515;75;720;-61
2023/05/29 02:16:43;;;;;;;;;;;23.20;41.40;;;;;;1558655;74;1156;-61
2023/05/29 02:18:45;;;;;;;;;;;23.10;41.50;;;;;;1561455;74;810;-60
2023/05/29 02:20:47;;;;;;;;;;;23.20;41.40;;;;;;1568106;75;716;-60
2023/05/29 02:22:49;;;;;;;;;;;23.10;41.50;;;;;;1564418;74;779;-60
2023/05/29 02:24:51;;;;;;;;;;;23.10;41.50;;;;;;1559907;75;1429;-61
2023/05/29 02:26:53;;;;;;;;;;;23.10;41.60;;;;;;1562651;75;1071;-60
2023/05/29 02:28:55;;;;;;;;;;;23.10;41.50;;;;;;1568757;75;730;-60
2023/05/29 02:30:57;;;;;;;;;;;23.10;41.50;;;;;;1562422;75;1915;-61
2023/05/29 02:32:59;;;;;;;;;;;23.10;41.50;;;;;;1569278;74;736;-60
2023/05/29 02:35:01;;;;;;;;;;;23.10;41.60;;;;;;1562364;75;707;-61
2023/05/29 02:37:03;;;;;;;;;;;23.20;41.50;;;;;;1572028;74;1120;-60
2023/05/29 02:39:06;;;;;;;;;;;23.10;41.50;;;;;;1567623;75;1406;-60
2023/05/29 02:41:07;;;;;;;;;;;23.20;41.60;;;;;;1559016;75;783;-61
2023/05/29 02:43:10;;;;;;;;;;;23.10;41.50;;;;;;1570408;75;719;-61
2023/05/29 02:45:11;;;;;;;;;;;23.10;41.50;;;;;;1555390;75;722;-61
2023/05/29 02:47:13;;;;;;;;;;;23.10;41.50;;;;;;1570473;75;1161;-61
2023/05/29 02:49:15;;;;;;;;;;;23.10;41.50;;;;;;1567487;74;733;-60
2023/05/29 02:51:17;;;;;;;;;;;23.10;41.50;;;;;;1566507;75;1930;-60
2023/05/29 02:53:19;;;;;;;;;;;23.10;41.50;;;;;;1566285;75;1527;-61
2023/05/29 02:55:21;;;;;;;;;;;23.10;41.60;;;;;;1565945;74;711;-61
2023/05/29 02:57:23;;;;;;;;;;;23.10;41.60;;;;;;1566649;74;1126;-61
2023/05/29 02:59:25;;;;;;;;;;;23.20;41.60;;;;;;1563807;74;657;-60
2023/05/29 03:01:27;;;;;;;;;;;23.10;41.60;;;;;;1572984;74;710;-61
2023/05/29 03:03:29;;;;;;;;;;;23.10;41.50;;;;;;1571578;74;732;-61
2023/05/29 03:05:30;;;;;;;;;;;23.10;41.60;;;;;;1562781;75;785;-61
2023/05/29 03:07:32;;;;;;;;;;;23.10;41.50;;;;;;1564164;75;1424;-61
2023/05/29 03:09:34;;;;;;;;;;;23.10;41.50;;;;;;1565531;75;1926;-62
2023/05/29 03:11:37;;;;;;;;;;;23.10;41.60;;;;;;1566220;75;1276;-61
2023/05/29 03:13:40;;;;;;;;;;;23.10;41.60;;;;;;1550066;75;699;-62
2023/05/29 03:15:42;;;;;;;;;;;23.20;41.50;;;;;;1556826;75;808;-61
2023/05/29 03:17:43;;;;;;;;;;;23.10;41.50;;;;;;1562734;75;1180;-61
2023/05/29 03:19:45;;;;;;;;;;;23.10;41.50;;;;;;1571665;75;686;-61
2023/05/29 03:21:47;;;;;;;;;;;23.10;41.50;;;;;;1550834;75;1639;-61
2023/05/29 03:23:49;;;;;;;;;;;23.10;41.50;;;;;;1560127;75;725;-60
2023/05/29 03:25:51;;;;;;;;;;;23.10;41.50;;;;;;1562643;75;717;-60
2023/05/29 03:27:53;;;;;;;;;;;23.20;41.50;;;;;;1544618;75;1189;-59
2023/05/29 03:29:55;;;;;;;;;;;23.10;41.50;;;;;;1579274;75;1903;-61
2023/05/29 03:31:57;;;;;;;;;;;23.10;41.40;;;;;;1563563;74;754;-61
2023/05/29 03:33:59;;;;;;;;;;;23.10;41.50;;;;;;1559500;74;723;-60
2023/05/29 03:36:01;;;;;;;;;;;23.20;41.40;;;;;;1563181;75;1582;-60
2023/05/29 03:38:03;;;;;;;;;;;23.10;41.50;;;;;;1552735;75;1147;-62
2023/05/29 03:40:05;;;;;;;;;;;23.20;41.50;;;;;;1561084;75;751;-61
2023/05/29 03:42:07;;;;;;;;;;;23.10;41.50;;;;;;1560221;75;727;-61
2023/05/29 03:44:09;;;;;;;;;;;23.10;41.50;;;;;;1574567;75;734;-60
2023/05/29 03:46:11;;;;;;;;;;;23.10;41.50;;;;;;1566024;75;872;-61
2023/05/29 03:48:14;;;;;;;;;;;23.20;41.40;;;;;;1560117;74;1162;-60
2023/05/29 03:50:16;;;;;;;;;;;23.10;41.60;;;;;;1543475;75;1932;-60
2023/05/29 03:52:18;;;;;;;;;;;23.10;41.50;;;;;;1554280;74;722;-60
2023/05/29 03:54:20;;;;;;;;;;;23.10;41.50;;;;;;1547852;75;684;-62
2023/05/29 03:56:22;;;;;;;;;;;23.10;41.50;;;;;;1545462;75;754;-60
2023/05/29 03:58:24;;;;;;;;;;;23.10;41.50;;;;;;1562179;75;1136;-60
2023/05/29 04:00:26;;;;;;;;;;;23.10;41.50;;;;;;1557217;75;773;-60
2023/05/29 04:02:28;;;;;;;;;;;23.10;41.50;;;;;;1552438;74;781;-60
2023/05/29 04:04:30;;;;;;;;;;;23.10;41.50;;;;;;1547588;75;1580;-59
2023/05/29 04:06:32;;;;;;;;;;;23.20;41.50;;;;;;1563647;75;773;-60
2023/05/29 04:08:33;;;;;;;;;;;23.20;41.50;;;;;;1551505;75;1136;-60
2023/05/29 04:10:36;;;;;;;;;;;23.20;41.50;;;;;;1518222;77;1933;-59
2023/05/29 04:12:38;;;;;;;;;;;23.20;41.50;;;;;;1519153;77;1087;-60
2023/05/29 04:14:40;;;;;;;;;;;23.10;41.60;;;;;;1518695;77;717;-60
2023/05/29 04:18:21;;;;;;;;;;;23.10;41.70;;;;;;1591264;72;1304;-61
2023/05/29 04:20:23;;;;;;;;;;;23.10;41.70;;;;;;1582845;74;691;-60
2023/05/29 04:22:25;;;;;;;;;;;23.20;41.70;;;;;;1583011;74;710;-60
2023/05/29 04:24:27;;;;;;;;;;;23.20;41.70;;;;;;1571319;74;714;-60
2023/05/29 04:26:29;;;;;;;;;;;23.10;41.60;;;;;;1586388;74;666;-60
2023/05/29 04:28:31;;;;;;;;;;;23.20;41.50;;;;;;1581541;74;1137;-61
2023/05/29 04:30:33;;;;;;;;;;;23.20;41.60;;;;;;1583406;74;775;-60
2023/05/29 04:32:36;;;;;;;;;;;23.20;41.60;;;;;;1568548;74;1589;-60
2023/05/29 04:34:40;;;;;;;;;;;23.10;41.70;;;;;;1571077;74;705;-60
2023/05/29 04:36:44;;;;;;;;;;;23.20;41.70;;;;;;1570345;74;1904;-61
2023/05/29 04:38:47;;;;;;;;;;;23.20;41.60;;;;;;1579122;74;1134;-61
2023/05/29 04:40:50;;;;;;;;;;;23.20;41.60;;;;;;1581427;74;752;-61
2023/05/29 04:42:52;;;;;;;;;;;23.20;41.70;;;;;;1585571;74;751;-61
2023/05/29 04:44:54;;;;;;;;;;;23.10;41.70;;;;;;1592942;74;1420;-59
2023/05/29 04:47:03;;;;;;;;;;;23.10;41.80;;;;;;1587850;73;1114;-61
2023/05/29 04:49:02;;;;;;;;;;;23.20;41.80;;;;;;1596682;74;1271;-60
2023/05/29 04:51:05;;;;;;;;;;;23.10;41.70;;;;;;1593795;74;725;-60
2023/05/29 04:53:07;;;;;;;;;;;23.10;41.90;;;;;;1591158;74;771;-59
2023/05/29 04:55:10;;;;;;;;;;;23.10;42.10;;;;;;1577719;74;717;-61
2023/05/29 04:57:12;;;;;;;;;;;23.00;42.00;;;;;;1593073;74;1919;-60
2023/05/29 04:59:14;;;;;;;;;;;23.10;42.10;;;;;;1591588;74;1523;-60
2023/05/29 05:01:17;;;;;;;;;;;23.10;42.00;;;;;;1588631;74;736;-60
2023/05/29 05:03:19;;;;;;;;;;;23.10;41.90;;;;;;1593964;73;729;-60
2023/05/29 05:05:21;;;;;;;;;;;23.00;41.80;;;;;;1593956;74;747;-60
2023/05/29 05:07:22;;;;;;;;;;;23.10;42.00;;;;;;1588121;74;1148;-59
2023/05/29 05:09:24;;;;;;;;;;;23.10;42.00;;;;;;1593376;74;691;-59
2023/05/29 05:11:26;;;;;;;;;;;23.00;42.00;;;;;;1584045;74;667;-59
2023/05/29 05:13:28;;;;;;;;;;;23.00;42.00;;;;;;1590527;74;1414;-59
2023/05/29 05:15:30;;;;;;;;;;;23.00;42.00;;;;;;1584257;74;690;-59
2023/05/29 05:17:32;;;;;;;;;;;23.00;42.00;;;;;;1585790;73;1959;-60
2023/05/29 05:19:34;;;;;;;;;;;23.00;42.20;;;;;;1590224;74;705;-59
2023/05/29 05:21:36;;;;;;;;;;;23.00;42.30;;;;;;1584822;74;776;-60
2023/05/29 05:23:37;;;;;;;;;;;23.00;42.30;;;;;;1595733;74;715;-60
2023/05/29 05:25:39;;;;;;;;;;;23.00;42.20;;;;;;1593497;74;702;-61
2023/05/29 05:27:41;;;;;;;;;;;23.00;42.30;;;;;;1590780;74;1496;-60
2023/05/29 05:29:43;;;;;;;;;;;23.10;42.60;;;;;;1586568;74;776;-59
2023/05/29 05:31:45;;;;;;;;;;;23.00;42.40;;;;;;1576038;74;746;-60
2023/05/29 05:33:47;;;;;;;;;;;23.10;42.60;;;;;;1574098;74;743;-60
2023/05/29 05:35:49;;;;;;;;;;;23.00;42.50;;;;;;1570022;74;650;-59
2023/05/29 05:37:51;;;;;;;;;;;23.00;42.30;;;;;;1572453;74;1954;-60
2023/05/29 05:39:53;;;;;;;;;;;23.00;42.30;;;;;;1578819;74;690;-60
2023/05/29 05:41:55;;;;;;;;;;;23.00;42.40;;;;;;1569523;73;1489;-60
2023/05/29 05:43:57;;;;;;;;;;;23.00;42.30;;;;;;1582558;74;1204;-60
2023/05/29 05:45:58;;;;;;;;;;;23.10;42.30;;;;;;1576362;74;1096;-60
2023/05/29 05:48:01;;;;;;;;;;;23.10;42.20;;;;;;1586542;74;1417;-60
2023/05/29 05:50:03;;;;;;;;;;;23.10;42.10;;;;;;1583895;74;1419;-61
2023/05/29 05:52:05;;;;;;;;;;;23.10;42.00;;;;;;1571480;74;1207;-59
2023/05/29 05:54:07;;;;;;;;;;;23.10;41.80;;;;;;1583691;74;1232;-60
2023/05/29 05:56:09;;;;;;;;;;;23.10;41.70;;;;;;1565538;74;1314;-60
2023/05/29 05:58:11;;;;;;;;;;;23.10;41.70;;;;;;1545187;75;1938;-60
2023/05/29 06:00:13;;;;;;;;;;;23.20;41.70;;;;;;1558971;75;714;-60
2023/05/29 06:02:15;;;;;;;;;;;23.20;41.70;;;;;;1542698;75;753;-60
2023/05/29 06:04:17;;;;;;;;;;;23.20;41.60;;;;;;1549093;75;716;-60
2023/05/29 06:06:19;;;;;;;;;;;23.20;41.50;;;;;;1565907;75;745;-60
2023/05/29 06:08:21;;;;;;;;;;;23.20;41.60;;;;;;1547597;75;1124;-60
2023/05/29 06:10:23;;;;;;;;;;;23.20;41.60;;;;;;1549514;75;1607;-61
2023/05/29 06:12:25;;;;;;;;;;;23.20;41.50;;;;;;1550224;75;716;-60
2023/05/29 06:14:27;;;;;;;;;;;23.30;41.60;;;;;;1546106;75;725;-60
2023/05/29 06:16:29;;;;;;;;;;;23.20;41.50;;;;;;1544131;75;748;-60
2023/05/29 06:18:31;;;;;;;;;;;23.20;41.50;;;;;;1551215;75;1923;-60
2023/05/29 06:20:33;;;;;;;;;;;23.20;41.50;;;;;;1550550;75;707;-60
2023/05/29 06:22:35;;;;;;;;;;;23.20;41.50;;;;;;1548200;75;730;-60
2023/05/29 06:24:37;;;;;;;;;;;23.20;41.50;;;;;;1550320;75;1431;-60
2023/05/29 06:26:39;;;;;;;;;;;23.20;41.40;;;;;;1544937;76;1146;-60
2023/05/29 06:28:41;;;;;;;;;;;23.20;41.30;;;;;;1549712;75;1237;-57
2023/05/29 06:30:43;;;;;;;;;;;23.20;41.40;;;;;;1546677;75;704;-58
2023/05/29 06:32:45;;;;;;;;;;;23.20;41.40;;;;;;1544597;75;876;-58
2023/05/29 06:34:47;;;;;;;;;;;23.10;41.30;;;;;;1548237;75;724;-59
2023/05/29 06:36:48;;;;;;;;;;;23.10;41.10;;;;;;1537253;75;1142;-58
2023/05/29 06:38:51;;;;;;;;;;;23.20;39.60;;;;;;1547727;74;1937;-58
2023/05/29 06:40:52;;;;;;;;;;;23.10;40.50;;;;;;1551691;75;758;-58
2023/05/29 06:42:54;;;;;;;;;;;23.10;41.00;;;;;;1556441;75;752;-60
2023/05/29 06:44:56;;;;;;;;;;;23.10;40.00;;;;;;1553726;75;1426;-58
2023/05/29 06:46:58;;;;;;;;;;;23.10;39.60;;;;;;1561617;74;1230;-58
2023/05/29 06:49:00;;;;;;;;;;;23.10;39.10;;;;;;1572901;74;1214;-60
2023/05/29 06:51:08;;;;;;;;;;;23.00;39.70;;;;;;1571819;73;1680;-59
2023/05/29 06:53:06;;;;;;;;;;;23.00;40.20;;;;;;1571347;74;1567;-58
2023/05/29 06:55:08;;;;;;;;;;;23.10;40.10;;;;;;1568701;74;1319;-58
2023/05/29 06:57:10;;;;;;;;;;;23.10;39.90;;;;;;1564870;74;1256;-58
2023/05/29 06:59:12;;;;;;;;;;;23.10;39.70;;;;;;1569889;74;1930;-60
2023/05/29 07:01:15;;;;;;;;;;;23.20;40.00;;;;;;1569550;74;1323;-62
2023/05/29 07:03:17;;;;;;;;;;;23.20;39.80;;;;;;1566035;74;810;-60
2023/05/29 07:05:18;;;;;;;;;;;23.20;39.20;;;;;;1576780;74;704;-58
2023/05/29 07:07:20;;;;;;;;;;;23.20;39.30;;;;;;1557616;74;1621;-59
2023/05/29 07:09:22;;;;;;;;;;;23.10;39.40;;;;;;1559786;74;769;-59
2023/05/29 07:11:26;;;;;;;;;;;23.20;39.70;;;;;;1571251;74;788;-58
2023/05/29 07:13:27;;;;;;;;;;;23.20;40.00;;;;;;1566450;74;792;-59
2023/05/29 07:15:29;;;;;;;;;;;23.20;39.40;;;;;;1559896;74;780;-59
2023/05/29 07:17:31;;;;;;;;;;;23.30;39.70;;;;;;1566916;74;1934;-57
2023/05/29 07:19:33;;;;;;;;;;;23.30;38.90;;;;;;1560841;74;1454;-59
2023/05/29 07:21:35;;;;;;;;;;;23.20;39.00;;;;;;1552239;74;793;-60
2023/05/29 07:23:37;;;;;;;;;;;23.30;39.70;;;;;;1562996;74;725;-60
2023/05/29 07:25:39;;;;;;;;;;;23.40;39.10;;;;;;1580517;74;1070;-60
2023/05/29 07:27:41;;;;;;;;;;;23.40;39.20;;;;;;1566430;75;1141;-57
2023/05/29 07:29:43;;;;;;;;;;;23.40;39.20;;;;;;1570767;74;1238;-57
2023/05/29 07:31:45;;;;;;;;;;;23.40;38.70;;;;;;1553362;74;748;-59
2023/05/29 07:33:46;;;;;;;;;;;23.40;38.80;;;;;;1566576;74;1372;-58
2023/05/29 07:35:48;;;;;;;;;;;23.50;38.50;;;;;;1564064;74;799;-58
2023/05/29 07:37:52;;;;;;;;;;;23.50;38.40;;;;;;1570398;75;1954;-59
2023/05/29 07:39:54;;;;;;;;;;;23.50;38.90;;;;;;1556042;74;659;-59
2023/05/29 07:41:55;;;;;;;;;;;23.50;37.40;;;;;;1559343;74;788;-59
2023/05/29 07:43:57;;;;;;;;;;;23.50;38.00;;;;;;1560564;74;702;-59
2023/05/29 07:45:59;;;;;;;;;;;23.50;37.50;;;;;;1564227;73;1126;-58
2023/05/29 07:48:01;;;;;;;;;;;23.50;38.40;;;;;;1571285;73;1405;-60
2023/05/29 07:50:03;;;;;;;;;;;23.50;37.80;;;;;;1578690;73;666;-58
2023/05/29 07:52:05;;;;;;;;;;;23.40;37.60;;;;;;1574494;73;775;-59
2023/05/29 07:54:07;;;;;;;;;;;23.50;38.10;;;;;;1574927;73;788;-59
2023/05/29 07:56:09;;;;;;;;;;;23.50;38.20;;;;;;1577191;74;777;-59
2023/05/29 07:58:11;;;;;;;;;;;23.50;37.80;;;;;;1577604;73;1950;-59
2023/05/29 08:00:13;;;;;;;;;;;23.50;38.20;;;;;;1578317;73;1287;-59
2023/05/29 08:02:16;;;;;;;;;;;23.60;37.80;;;;;;1585689;74;1477;-59
2023/05/29 08:04:18;;;;;;;;;;;23.50;38.00;;;;;;1586545;73;734;-59
2023/05/29 08:06:20;;;;;;;;;;;23.50;37.30;;;;;;1578253;73;722;-59
2023/05/29 08:08:21;;;;;;;;;;;23.50;37.20;;;;;;1579635;73;1128;-61
2023/05/29 08:10:23;;;;;;;;;;;23.50;37.70;;;;;;1580502;74;680;-59
2023/05/29 08:12:25;;;;;;;;;;;23.50;37.60;;;;;;1570054;73;769;-60
2023/05/29 08:14:27;;;;;;;;;;;23.50;37.60;;;;;;1565046;74;777;-61
2023/05/29 08:16:29;;;;;;;;;;;23.50;37.20;;;;;;1577539;73;1411;-61
2023/05/29 08:18:32;;;;;;;;;;;23.60;37.80;;;;;;1568800;73;1938;-60
2023/05/29 08:20:34;;;;;;;;;;;23.60;37.80;;;;;;1579864;73;790;-59
2023/05/29 08:22:36;;;;;;;;;;;23.60;37.50;;;;;;1583090;73;807;-59
2023/05/29 08:24:38;;;;;;;;;;;23.60;37.40;;;;;;1569358;73;651;-59
2023/05/29 08:26:40;;;;;;;;;;;23.60;37.90;;;;;;1582104;73;1103;-60
2023/05/29 08:28:42;;;;;;;;;;;23.70;38.10;;;;;;1582133;74;728;-60
2023/05/29 08:30:44;;;;;;;;;;;23.70;38.10;;;;;;1566882;73;1408;-60
2023/05/29 08:32:46;;;;;;;;;;;23.60;37.80;;;;;;1579710;73;607;-60
2023/05/29 08:34:49;;;;;;;;;;;23.70;37.80;;;;;;1564501;73;803;-60
2023/05/29 08:36:51;;;;;;;;;;;23.60;37.50;;;;;;1572909;74;1157;-60
2023/05/29 08:38:53;;;;;;;;;;;23.60;37.40;;;;;;1563258;74;1930;-60
2023/05/29 08:40:55;;;;;;;;;;;23.60;37.90;;;;;;1565218;73;756;-59
2023/05/29 08:42:58;;;;;;;;;;;23.70;37.20;;;;;;1574366;73;812;-60
2023/05/29 08:45:01;;;;;;;;;;;23.60;37.70;;;;;;1573740;73;1338;-61
2023/05/29 08:47:06;;;;;;;;;;;23.70;36.80;;;;;;1571482;74;1104;-60
2023/05/29 08:49:09;;;;;;;;;;;23.60;37.40;;;;;;1566626;74;733;-60
2023/05/29 08:51:11;;;;;;;;;;;23.60;37.70;;;;;;1564985;74;670;-60
2023/05/29 08:53:19;;;;;;;;;;;23.70;37.70;;;;;;1565021;74;779;-60
2023/05/29 08:55:18;;;;;;;;;;;23.70;37.90;;;;;;1572460;74;1471;-60
2023/05/29 08:57:20;;;;;;;;;;;23.60;37.80;;;;;;1566534;74;1165;-60
2023/05/29 08:59:22;;;;;;;;;;;23.60;37.20;;;;;;1568424;75;1925;-59
2023/05/29 09:01:24;;;;;;;;;;;23.60;36.80;;;;;;1573557;74;1117;-59
2023/05/29 09:03:26;;;;;;;;;;;23.60;37.20;;;;;;1559486;74;659;-59
2023/05/29 09:05:29;;;;;;;;;;;23.60;37.20;;;;;;1557376;74;724;-60
2023/05/29 09:07:31;;;;;;;;;;;23.60;37.70;;;;;;1577328;74;1145;-60
2023/05/29 09:10:13;;;;;;;;;;;23.50;38.00;;;;;;1608585;72;610;-60
2023/05/29 09:14:34;;;;;;;;;;;23.60;38.60;;;;;;1611726;72;572;-60
2023/05/29 09:16:38;;;;;;;;;;;23.50;38.90;;;;;;1583813;73;672;-59
2023/05/29 09:18:41;;;;;;;;;;;23.50;38.40;;;;;;1559891;74;1612;-59
2023/05/29 09:20:43;;;;;;;;;;;23.50;38.80;;;;;;1547644;76;755;-59
2023/05/29 09:22:49;;;;;;;;;;;23.50;39.00;;;;;;1479705;78;825;-60
2023/05/29 09:24:51;;;;;;;;;;;23.60;38.70;;;;;;1493193;77;1737;-60
2023/05/29 09:26:53;;;;;;;;;;;23.60;38.70;;;;;;1490244;78;1429;-60
2023/05/29 09:28:55;;;;;;;;;;;23.50;38.80;;;;;;1496629;77;722;-60
2023/05/29 09:30:57;;;;;;;;;;;23.60;38.60;;;;;;1498064;78;780;-59
2023/05/29 09:33:00;;;;;;;;;;;23.60;38.70;;;;;;1497224;77;1918;-61
2023/05/29 09:35:02;;;;;;;;;;;23.60;38.80;;;;;;1486489;78;674;-60
2023/05/29 09:37:11;;;;;;;;;;;23.60;38.60;;;;;;1475702;80;1103;-59
2023/05/29 09:39:15;;;;;;;;;;;23.70;38.80;;;;;;1505321;78;718;-59
2023/05/29 09:41:23;;;;;;;;;;;23.60;38.50;;;;;;1496767;77;1459;-59
2023/05/29 09:43:25;;;;;;;;;;;23.60;38.60;;;;;;1496991;77;660;-60
2023/05/29 09:45:27;;;;;;;;;;;23.60;38.30;;;;;;1496163;77;650;-59
2023/05/29 09:47:29;;;;;;;;;;;23.60;38.20;;;;;;1499952;78;1207;-59
2023/05/29 09:49:32;;;;;;;;;;;23.60;37.70;;;;;;1522468;77;1258;-59
2023/05/29 09:51:33;;;;;;;;;;;23.50;36.90;;;;;;1524406;77;783;-58
2023/05/29 09:53:36;;;;;;;;;;;23.50;38.20;;;;;;1502926;77;1955;-59
2023/05/29 09:55:37;;;;;;;;;;;23.60;38.10;;;;;;1497178;78;1269;-59
2023/05/29 09:57:39;;;;;;;;;;;23.60;38.50;;;;;;1526743;77;1132;-59
2023/05/29 09:59:43;;;;;;;;;;;23.60;38.60;;;;;;1534009;77;787;-59
2023/05/29 10:01:45;;;;;;;;;;;23.60;38.70;;;;;;1533560;77;812;-58
2023/05/29 10:03:47;;;;;;;;;;;23.60;38.30;;;;;;1564189;76;813;-59
2023/05/29 10:05:54;;;;;;;;;;;23.60;36.40;;;;;;1554269;76;775;-60
2023/05/29 10:07:56;;;;;;;;;;;23.40;36.90;;;;;;1566098;74;1170;-59
2023/05/29 10:10:00;;;;;;;;;;;23.50;37.30;;;;;;1558081;75;1698;-59
2023/05/29 10:12:02;;;;;;;;;;;23.50;37.10;;;;;;1556547;74;1012;-60
2023/05/29 10:14:04;;;;;;;;;;;23.60;36.70;;;;;;1553331;75;1916;-59
2023/05/29 10:16:07;;;;;;;;;;;23.50;36.30;;;;;;1487252;78;1226;-57
2023/05/29 10:18:22;;;;;;;;;;;23.40;35.10;;;;;;1489308;78;1236;-59
2023/05/29 10:20:24;;;;;;;;;;;23.30;36.20;;;;;;1485422;78;1004;-58
2023/05/29 10:22:26;;;;;;;;;;;23.40;36.80;;;;;;1559680;74;1352;-59
2023/05/29 10:24:27;;;;;;;;;;;23.40;35.90;;;;;;1563464;74;1277;-59
2023/05/29 10:26:31;;;;;;;;;;;23.40;36.30;;;;;;1567417;74;1536;-59
2023/05/29 10:28:32;;;;;;;;;;;23.40;36.60;;;;;;1569703;74;1256;-59
2023/05/29 10:30:40;;;;;;;;;;;23.40;36.20;;;;;;1568936;74;1257;-60
2023/05/29 10:32:46;;;;;;;;;;;23.40;36.90;;;;;;1569563;74;1322;-59
2023/05/29 10:34:54;;;;;;;;;;;23.50;36.90;;;;;;1560911;74;1247;-59
2023/05/29 10:36:58;;;;;;;;;;;23.40;37.00;;;;;;1563995;74;1795;-58
2023/05/29 10:39:00;;;;;;;;;;;23.50;37.00;;;;;;1551634;74;1597;-60
2023/05/29 10:41:20;;;;;;;;;;;23.50;37.00;;;;;;1554052;74;1233;-58
2023/05/29 10:43:32;;;;;;;;;;;23.40;36.50;;;;;;1569248;74;1098;-60
2023/05/29 10:45:35;;;;;;;;;;;23.40;36.10;;;;;;1555657;74;1216;-60
2023/05/29 10:47:38;;;;;;;;;;;23.40;36.90;;;;;;1556777;74;1237;-60
2023/05/29 10:49:40;;;;;;;;;;;23.50;37.20;;;;;;1557091;74;617;-58
2023/05/29 10:51:42;;;;;;;;;;;23.40;36.60;;;;;;1554843;74;1566;-59
2023/05/29 10:53:43;;;;;;;;;;;23.40;36.60;;;;;;1567165;74;1961;-58
2023/05/29 10:55:45;;;;;;;;;;;23.40;36.70;;;;;;1556582;74;668;-60
2023/05/29 10:57:48;;;;;;;;;;;23.40;36.60;;;;;;1561645;74;1157;-60
2023/05/29 10:59:55;;;;;;;;;;;23.40;36.50;;;;;;1566940;74;702;-59
2023/05/29 11:01:57;;;;;;;;;;;23.40;35.80;;;;;;1555729;75;1927;-57
2023/05/29 11:04:17;;;;;;;;;;;23.30;36.80;;;;;;1561206;75;765;-58
2023/05/29 11:06:20;;;;;;;;;;;23.30;37.00;;;;;;1566472;75;1550;-57
2023/05/29 11:08:23;;;;;;;;;;;23.30;36.00;;;;;;1552490;75;1151;-59
2023/05/29 11:10:46;;;;;;;;;;;23.10;35.60;;;;;;1562693;75;1742;-60
2023/05/29 11:12:58;;;;;;;;;;;23.10;35.20;;;;;;1554379;74;738;-60
2023/05/29 11:15:03;;;;;;;;;;;23.10;35.20;;;;;;1555793;75;748;-60
2023/05/29 11:17:05;;;;;;;;;;;23.10;36.50;;;;;;1573127;75;1129;-58
2023/05/29 11:19:10;;;;;;;;;;;23.10;36.50;;;;;;1573786;74;1434;-56
2023/05/29 11:21:23;;;;;;;;;;;23.10;36.80;;;;;;1566791;75;657;-57
2023/05/29 11:23:25;;;;;;;;;;;23.00;35.10;;;;;;1557610;75;845;-57
2023/05/29 11:25:28;;;;;;;;;;;23.00;36.50;;;;;;1549659;75;814;-59
2023/05/29 11:27:29;;;;;;;;;;;23.00;35.80;;;;;;1554604;74;1092;-58
2023/05/29 11:29:31;;;;;;;;;;;23.00;36.50;;;;;;1554565;75;656;-59
2023/05/29 11:31:34;;;;;;;;;;;23.00;37.20;;;;;;1561312;75;742;-60
2023/05/29 11:33:41;;;;;;;;;;;23.00;37.50;;;;;;1563014;75;1935;-60
2023/05/29 11:35:43;;;;;;;;;;;23.10;37.10;;;;;;1554950;75;789;-58
2023/05/29 11:37:50;;;;;;;;;;;23.00;37.10;;;;;;1540610;75;1188;-59
2023/05/29 11:39:48;;;;;;;;;;;23.10;37.30;;;;;;1531110;77;1514;-60
2023/05/29 11:41:53;;;;;;;;;;;23.10;36.10;;;;;;1541123;77;713;-60
2023/05/29 11:44:02;;;;;;;;;;;23.10;36.90;;;;;;1531824;77;799;-58
2023/05/29 11:46:05;;;;;;;;;;;23.10;37.50;;;;;;1527904;77;670;-57
2023/05/29 11:48:07;;;;;;;;;;;23.10;37.00;;;;;;1533551;76;1719;-60
2023/05/29 11:50:22;;;;;;;;;;;23.10;36.60;;;;;;1519879;77;754;-60
2023/05/29 11:52:23;;;;;;;;;;;23.10;37.20;;;;;;1527982;76;737;-61
2023/05/29 11:54:25;;;;;;;;;;;23.10;36.80;;;;;;1534565;77;1932;-58
2023/05/29 11:56:28;;;;;;;;;;;23.10;36.30;;;;;;1529718;77;772;-60
2023/05/29 11:58:30;;;;;;;;;;;23.10;36.00;;;;;;1525712;76;1104;-58
2023/05/29 12:00:32;;;;;;;;;;;23.10;36.50;;;;;;1537638;76;795;-58
2023/05/29 12:02:34;;;;;;;;;;;23.00;36.60;;;;;;1531023;77;1670;-59
2023/05/29 12:04:36;;;;;;;;;;;23.10;35.90;;;;;;1524619;77;776;-58
2023/05/29 12:06:38;;;;;;;;;;;23.10;36.20;;;;;;1529525;77;767;-58
2023/05/29 12:08:40;;;;;;;;;;;23.10;36.60;;;;;;1522811;76;700;-59
2023/05/29 12:10:51;;;;;;;;;;;23.10;35.70;;;;;;1533372;77;728;-58
2023/05/29 12:12:54;;;;;;;;;;;23.00;36.10;;;;;;1522990;77;802;-59
2023/05/29 12:14:56;;;;;;;;;;;23.10;36.60;;;;;;1538134;77;1902;-59